Time;durP1;ratioP1;P1;durP2;ratioP2;P2;SDS_P1;SDS_P2;PMS_P1;PMS_P2;Temp;Humidity;BMP_temperature;BMP_pressure;BME280_temperature;BME280_humidity;BME280_pressure;Samples;Min_cycle;Max_cycle;Signal;HPM_P1;HPM_P2
2022/02/17 00:02:12;;;;;;;1.60;1.47;;;13.10;99.90;;;;;;5000101;28;20453;-81
2022/02/17 00:04:39;;;;;;;1.27;0.80;;;12.40;99.90;;;;;;5000389;28;20456;-81
2022/02/17 00:07:07;;;;;;;1.70;1.60;;;12.50;99.90;;;;;;4999895;28;20998;-80
2022/02/17 00:09:34;;;;;;;1.10;1.00;;;12.50;99.90;;;;;;4998935;28;20887;-80
2022/02/17 00:12:00;;;;;;;0.93;0.90;;;12.50;99.90;;;;;;5000144;28;20967;-82
2022/02/17 00:14:27;;;;;;;1.10;0.90;;;12.60;99.90;;;;;;4999876;28;20967;-80
2022/02/17 00:16:53;;;;;;;0.80;0.80;;;12.60;99.90;;;;;;4999649;28;20476;-80
2022/02/17 00:19:20;;;;;;;1.37;0.80;;;12.60;99.90;;;;;;4999227;28;20472;-80
2022/02/17 00:21:47;;;;;;;1.10;1.00;;;12.60;99.90;;;;;;4999112;28;20486;-79
2022/02/17 00:24:16;;;;;;;0.73;0.73;;;12.50;99.90;;;;;;4999065;28;20445;-80
2022/02/17 00:26:42;;;;;;;0.93;0.80;;;12.40;99.90;;;;;;4998700;28;20538;-79
2022/02/17 00:29:09;;;;;;;1.37;1.00;;;12.30;99.90;;;;;;5025499;23;20471;-86
2022/02/17 00:31:37;;;;;;;0.80;0.80;;;12.10;99.90;;;;;;5005868;28;20440;-85
2022/02/17 00:34:05;;;;;;;1.00;0.80;;;12.10;99.90;;;;;;5008581;28;20445;-85
2022/02/17 00:36:36;;;;;;;0.97;0.80;;;12.20;99.90;;;;;;5012063;28;20448;-84
2022/02/17 00:39:05;;;;;;;0.77;0.77;;;12.10;99.90;;;;;;5012286;28;20824;-86
2022/02/17 00:41:40;;;;;;;0.90;0.90;;;12.00;99.90;;;;;;5010611;28;20520;-85
2022/02/17 00:44:08;;;;;;;0.73;0.70;;;12.20;99.90;;;;;;5009218;28;20535;-85
2022/02/17 00:46:36;;;;;;;0.80;0.80;;;12.30;99.90;;;;;;5010743;28;20440;-83
2022/02/17 00:49:06;;;;;;;1.37;1.00;;;12.10;99.90;;;;;;5009515;28;20464;-82
2022/02/17 00:51:35;;;;;;;1.00;0.90;;;12.20;99.90;;;;;;5009758;28;20453;-84
2022/02/17 00:54:05;;;;;;;2.50;2.00;;;12.10;99.90;;;;;;5008730;28;20518;-86
2022/02/17 00:56:37;;;;;;;1.50;0.90;;;12.00;99.90;;;;;;5010162;28;20448;-82
2022/02/17 00:59:04;;;;;;;2.20;1.20;;;11.90;99.90;;;;;;5008157;28;20449;-85
2022/02/17 01:01:32;;;;;;;1.03;0.83;;;11.90;99.90;;;;;;5006801;28;20459;-85
2022/02/17 01:04:01;;;;;;;1.00;0.80;;;11.50;99.90;;;;;;5006410;28;20458;-86
2022/02/17 01:06:29;;;;;;;1.63;1.03;;;11.90;99.90;;;;;;5008406;28;20455;-85
2022/02/17 01:08:59;;;;;;;1.00;1.00;;;11.70;99.90;;;;;;5007968;28;20480;-83
2022/02/17 01:11:28;;;;;;;2.93;1.00;;;11.70;99.90;;;;;;5008050;28;20456;-84
2022/02/17 01:13:58;;;;;;;0.70;0.70;;;11.60;99.90;;;;;;5008031;28;20519;-83
2022/02/17 01:16:28;;;;;;;1.70;1.10;;;11.70;99.90;;;;;;5009005;28;20542;-84
2022/02/17 01:18:55;;;;;;;3.90;1.37;;;11.10;99.90;;;;;;5011736;28;20477;-83
2022/02/17 01:21:22;;;;;;;3.40;1.33;;;9.00;99.90;;;;;;5010901;28;20434;-84
2022/02/17 01:23:51;;;;;;;5.13;1.40;;;9.00;99.90;;;;;;5011487;28;20422;-84
2022/02/17 01:26:18;;;;;;;2.13;1.30;;;8.60;99.90;;;;;;5008826;28;20416;-84
2022/02/17 01:28:50;;;;;;;4.50;1.93;;;;;;;;;;5007742;28;20509;-85
2022/02/17 01:31:31;;;;;;;4.00;1.17;;;8.40;99.90;;;;;;5009666;28;20724;-83
2022/02/17 01:34:01;;;;;;;5.00;1.37;;;11.20;99.90;;;;;;5012570;28;20441;-83
2022/02/17 01:36:34;;;;;;;4.60;1.80;;;8.70;99.90;;;;;;5011955;28;20447;-83
2022/02/17 01:39:02;;;;;;;3.05;1.20;;;8.30;99.90;;;;;;5015414;28;20419;-84
2022/02/17 01:41:29;;;;;;;1.67;1.30;;;8.60;99.90;;;;;;5011768;28;20201;-84
2022/02/17 01:44:03;;;;;;;2.13;1.30;;;8.40;99.90;;;;;;5010062;28;20414;-84
2022/02/17 01:46:35;;;;;;;2.30;1.60;;;8.30;99.90;;;;;;5010115;28;20213;-83
2022/02/17 01:49:03;;;;;;;1.60;1.50;;;8.40;99.90;;;;;;5006893;28;20283;-84
2022/02/17 01:51:31;;;;;;;3.38;1.10;;;8.40;99.90;;;;;;5002045;28;20259;-82
2022/02/17 01:53:58;;;;;;;1.60;0.88;;;8.30;99.90;;;;;;5007203;28;20583;-84
2022/02/17 01:56:26;;;;;;;3.45;1.45;;;8.40;99.90;;;;;;5010942;28;20207;-84
2022/02/17 01:58:53;;;;;;;2.80;1.97;;;8.70;99.90;;;;;;5009215;28;20228;-84
2022/02/17 02:01:21;;;;;;;4.03;1.75;;;8.40;99.90;;;;;;5011424;28;20452;-83
2022/02/17 02:03:50;;;;;;;2.53;1.10;;;8.50;99.90;;;;;;5015653;28;20197;-84
2022/02/17 02:06:16;;;;;;;2.83;2.65;;;8.50;99.90;;;;;;5015077;28;20205;-84
2022/02/17 02:08:43;;;;;;;3.00;2.15;;;8.00;99.90;;;;;;5013259;28;20225;-84
2022/02/17 02:11:10;;;;;;;4.90;1.50;;;8.50;99.90;;;;;;5012507;28;20208;-84
2022/02/17 02:13:37;;;;;;;4.10;1.45;;;8.50;99.90;;;;;;5018445;28;20403;-81
2022/02/17 02:16:08;;;;;;;2.05;1.50;;;8.50;99.90;;;;;;5018787;28;20201;-80
2022/02/17 02:18:35;;;;;;;2.05;1.65;;;8.50;99.90;;;;;;5018753;28;20205;-80
2022/02/17 02:21:03;;;;;;;2.53;1.30;;;8.60;99.90;;;;;;5016883;28;20201;-83
2022/02/17 02:23:30;;;;;;;5.80;1.80;;;8.60;99.90;;;;;;5013311;28;20447;-83
2022/02/17 02:25:58;;;;;;;3.92;1.73;;;8.70;99.90;;;;;;5018484;28;20450;-82
2022/02/17 02:28:26;;;;;;;4.47;1.70;;;8.60;99.90;;;;;;5016532;28;20260;-80
2022/02/17 02:30:54;;;;;;;2.50;1.50;;;8.50;99.90;;;;;;5016846;28;20209;-84
2022/02/17 02:33:23;;;;;;;4.20;1.70;;;8.60;99.90;;;;;;5017838;28;20193;-82
2022/02/17 02:35:50;;;;;;;3.73;1.50;;;8.60;99.90;;;;;;5018137;28;20418;-82
2022/02/17 02:38:21;;;;;;;3.67;1.40;;;8.90;99.90;;;;;;5019912;28;20443;-83
2022/02/17 02:40:49;;;;;;;2.33;1.80;;;8.80;99.90;;;;;;5021816;28;20441;-81
2022/02/17 02:43:16;;;;;;;5.57;1.70;;;8.60;99.90;;;;;;5021778;28;20449;-81
2022/02/17 02:45:44;;;;;;;4.60;1.80;;;8.60;99.90;;;;;;5021890;28;20420;-84
2022/02/17 02:48:14;;;;;;;2.27;1.40;;;8.90;99.90;;;;;;5021691;28;20483;-80
2022/02/17 02:50:42;;;;;;;3.65;1.95;;;8.60;99.90;;;;;;5021771;28;20460;-81
2022/02/17 02:53:14;;;;;;;6.60;1.83;;;8.30;99.90;;;;;;5021715;28;20195;-81
2022/02/17 02:55:43;;;;;;;3.58;1.83;;;8.70;99.90;;;;;;5018287;28;20940;-84
2022/02/17 02:58:10;;;;;;;13.43;2.80;;;8.60;99.90;;;;;;5009323;28;20645;-85
2022/02/17 03:00:37;;;;;;;6.07;3.40;;;8.90;99.90;;;;;;5009314;28;20431;-84
2022/02/17 03:03:05;;;;;;;3.33;1.63;;;8.90;99.90;;;;;;5009585;28;20452;-82
2022/02/17 03:05:34;;;;;;;6.57;1.97;;;8.90;99.90;;;;;;5010410;28;20429;-82
2022/02/17 03:08:30;;;;;;;5.63;2.10;;;9.00;99.90;;;;;;5008843;28;20484;-82
2022/02/17 03:11:39;;;;;;;6.70;1.80;;;8.90;99.90;;;;;;5009588;28;20449;-84
2022/02/17 03:17:43;;;;;;;7.40;1.80;;;9.00;99.90;;;;;;4999115;28;20261;-85
2022/02/17 03:20:42;;;;;;;;;;;;;;;;;;;;;
2022/02/17 03:26:39;;;;;;;3.90;1.37;;;9.20;99.90;;;;;;4973641;28;20426;-83
2022/02/17 03:39:34;;;;;;;8.03;1.90;;;9.50;21.60;;;;;;4930269;29;20438;-85
2022/02/17 04:08:55;;;;;;;8.43;1.80;;;9.20;1.00;;;;;;4981135;28;20549;-85
2022/02/17 04:15:27;;;;;;;7.63;1.90;;;9.30;1.00;;;;;;4998459;28;20480;-84
2022/02/17 04:24:53;;;;;;;4.63;2.17;;;10.60;1.00;;;;;;4998729;28;20438;-85
2022/02/17 04:34:06;;;;;;;2.20;1.40;;;9.50;1.00;;;;;;4963341;29;20449;-84
2022/02/17 04:39:56;;;;;;;17.10;1.90;;;9.40;96.80;;;;;;4893804;29;20527;-85
2022/02/17 04:42:29;;;;;;;4.27;2.20;;;8.40;97.60;;;;;;4968268;29;20440;-85
2022/02/17 04:48:26;;;;;;;8.87;2.17;;;12.50;99.90;;;;;;5010950;28;20424;-85
2022/02/17 04:51:18;;;;;;;5.10;1.73;;;8.60;99.90;;;;;;5009711;28;20429;-84
2022/02/17 04:56:46;;;;;;;6.47;2.17;;;8.30;99.90;;;;;;5004483;28;20433;-84
2022/02/17 04:59:26;;;;;;;7.07;2.27;;;8.80;99.90;;;;;;5010755;28;20468;-84
2022/02/17 05:02:00;;;;;;;5.90;1.30;;;8.10;99.90;;;;;;5010095;28;20464;-84
2022/02/17 05:04:52;;;;;;;6.30;1.65;;;8.10;99.90;;;;;;5009383;28;20429;-85
2022/02/17 05:07:19;;;;;;;1.75;1.65;;;;;;;;;;5009656;28;20193;-85
2022/02/17 05:09:48;;;;;;;6.82;1.67;;;;;;;;;;5008899;28;20344;-85
2022/02/17 05:12:19;;;;;;;3.63;1.67;;;;;;;;;;5009955;28;20273;-84
2022/02/17 05:18:11;;;;;;;1.80;1.00;;;7.80;99.90;;;;;;5010689;28;20193;-85
2022/02/17 05:20:39;;;;;;;6.53;2.25;;;7.80;99.90;;;;;;5009488;28;20201;-84
2022/02/17 05:23:12;;;;;;;4.25;1.33;;;7.80;99.90;;;;;;5009996;28;20782;-85
2022/02/17 05:25:39;;;;;;;4.18;1.45;;;;;;;;;;5009432;28;20201;-85
2022/02/17 05:28:21;;;;;;;3.55;1.83;;;7.70;99.90;;;;;;5009653;28;20234;-83
2022/02/17 05:30:54;;;;;;;3.83;2.10;;;;;;;;;;5009510;28;20252;-84
2022/02/17 05:33:21;;;;;;;2.80;1.40;;;;;;;;;;5009343;28;20229;-84
2022/02/17 05:35:52;;;;;;;9.68;1.85;;;7.60;99.90;;;;;;5009585;28;20227;-83
2022/02/17 05:38:21;;;;;;;2.78;1.33;;;7.40;99.90;;;;;;5009463;28;20301;-84
2022/02/17 05:40:51;;;;;;;3.10;1.92;;;;;;;;;;5008724;28;20277;-84
2022/02/17 05:46:46;;;;;;;4.50;1.73;;;7.70;96.40;;;;;;4989312;28;20237;-82
2022/02/17 05:52:49;;;;;;;5.50;1.90;;;7.70;4.40;;;;;;5014635;28;20209;-83
2022/02/17 05:56:06;;;;;;;5.57;2.60;;;8.00;4.40;;;;;;5015170;28;20431;-82
2022/02/17 06:02:23;;;;;;;4.93;1.88;;;8.30;1.00;;;;;;4959344;28;20546;-83
2022/02/17 06:05:25;;;;;;;4.30;2.00;;;8.30;99.90;;;;;;5011869;28;20221;-85
2022/02/17 06:12:21;;;;;;;4.07;1.80;;;8.40;99.90;;;;;;4885110;29;20202;-83
2022/02/17 06:15:26;;;;;;;4.70;2.10;;;8.60;99.90;;;;;;4970123;29;20537;-84
2022/02/17 06:18:22;;;;;;;5.70;2.20;;;8.50;1.00;;;;;;4881683;29;20433;-83
2022/02/17 06:21:33;;;;;;;11.00;1.93;;;8.70;1.00;;;;;;4978117;29;20438;-84
2022/02/17 06:24:40;;;;;;;9.23;2.20;;;10.60;1.00;;;;;;4880468;29;20449;-84
2022/02/17 06:30:23;;;;;;;5.70;2.50;;;8.80;1.00;;;;;;5021594;23;20712;-80
2022/02/17 06:32:51;;;;;;;2.97;1.80;;;8.90;99.90;;;;;;5005072;28;20510;-80
2022/02/17 06:35:19;;;;;;;6.78;2.50;;;8.80;1.00;;;;;;5004019;28;20197;-80
2022/02/17 06:37:46;;;;;;;4.70;2.20;;;8.70;1.00;;;;;;5001544;28;20252;-81
2022/02/17 06:40:14;;;;;;;4.80;2.33;;;8.80;1.00;;;;;;5003611;28;20800;-80
2022/02/17 06:42:41;;;;;;;4.03;2.00;;;8.70;99.90;;;;;;5003046;28;20411;-80
2022/02/17 06:45:08;;;;;;;7.30;2.53;;;8.70;58.60;;;;;;5001769;28;20956;-81
2022/02/17 06:47:36;;;;;;;6.50;2.13;;;8.80;1.00;;;;;;5001855;28;20775;-80
2022/02/17 06:50:04;;;;;;;18.83;2.43;;;8.70;1.00;;;;;;5002887;28;20507;-81
2022/02/17 06:52:31;;;;;;;12.07;2.03;;;8.70;1.00;;;;;;5003826;28;20506;-81
2022/02/17 06:54:58;;;;;;;7.05;2.33;;;8.70;1.00;;;;;;5004791;28;20990;-80
2022/02/17 06:57:24;;;;;;;4.30;2.30;;;8.80;1.00;;;;;;5005470;28;20197;-80
2022/02/17 06:59:53;;;;;;;3.50;1.60;;;8.80;1.00;;;;;;5009732;28;20491;-81
2022/02/17 07:02:22;;;;;;;7.57;2.30;;;8.80;99.90;;;;;;5007320;28;20963;-80
2022/02/17 07:04:50;;;;;;;7.53;2.27;;;8.90;99.90;;;;;;5006095;28;20936;-80
2022/02/17 07:07:17;;;;;;;5.20;2.90;;;8.90;99.90;;;;;;5008490;28;20448;-82
2022/02/17 07:09:44;;;;;;;16.70;2.27;;;8.90;99.90;;;;;;5008567;28;20497;-81
2022/02/17 07:12:12;;;;;;;5.63;2.23;;;9.00;99.90;;;;;;5005782;28;20415;-81
2022/02/17 07:14:38;;;;;;;13.47;3.70;;;9.00;99.90;;;;;;5006999;28;20415;-82
2022/02/17 07:17:05;;;;;;;8.40;3.33;;;9.10;99.90;;;;;;5006960;28;20456;-82
2022/02/17 07:19:32;;;;;;;20.30;8.20;;;9.10;99.90;;;;;;5009006;28;20434;-81
2022/02/17 07:22:02;;;;;;;16.13;5.67;;;9.10;99.90;;;;;;5008102;28;20445;-81
2022/02/17 07:24:29;;;;;;;13.47;6.17;;;9.20;99.90;;;;;;5009436;28;20514;-80
2022/02/17 07:26:56;;;;;;;15.73;6.63;;;9.30;99.90;;;;;;5017420;28;20423;-80
2022/02/17 07:29:22;;;;;;;17.00;6.13;;;9.30;99.90;;;;;;5017428;28;20447;-80
2022/02/17 07:31:52;;;;;;;11.60;5.43;;;9.30;99.90;;;;;;5011208;28;20415;-82
2022/02/17 07:34:18;;;;;;;4.97;2.07;;;9.30;99.90;;;;;;5007087;28;20838;-82
2022/02/17 07:36:45;;;;;;;6.50;4.10;;;9.40;99.90;;;;;;5004880;28;20450;-81
2022/02/17 07:39:13;;;;;;;5.77;2.97;;;9.40;94.60;;;;;;5006344;28;20533;-82
2022/02/17 07:41:40;;;;;;;4.20;2.50;;;9.40;65.50;;;;;;5005263;28;20427;-81
2022/02/17 07:44:09;;;;;;;8.87;2.97;;;9.40;39.60;;;;;;5005865;28;20564;-81
2022/02/17 07:46:36;;;;;;;11.30;2.80;;;9.40;44.30;;;;;;5005260;28;20443;-82
2022/02/17 07:49:03;;;;;;;4.07;1.93;;;9.50;7.20;;;;;;5005788;28;20508;-81
2022/02/17 07:51:30;;;;;;;5.37;2.17;;;9.50;1.00;;;;;;5006778;28;20414;-82
2022/02/17 07:53:57;;;;;;;9.23;2.63;;;9.50;1.00;;;;;;5007838;28;20861;-81
2022/02/17 07:56:25;;;;;;;5.73;2.10;;;9.60;1.00;;;;;;5011587;28;20441;-82
2022/02/17 07:58:52;;;;;;;9.20;2.40;;;9.60;1.00;;;;;;5014067;28;20466;-81
2022/02/17 08:01:19;;;;;;;7.70;2.30;;;9.60;1.00;;;;;;5014152;28;20789;-81
2022/02/17 08:03:46;;;;;;;3.90;1.60;;;9.70;1.00;;;;;;5016048;28;20443;-80
2022/02/17 08:06:13;;;;;;;8.50;2.20;;;9.80;1.00;;;;;;5018318;28;20411;-79
2022/02/17 08:08:42;;;;;;;5.80;1.97;;;9.90;1.00;;;;;;5017131;28;20450;-80
2022/02/17 08:11:08;;;;;;;9.77;2.20;;;9.90;1.00;;;;;;5018661;28;20468;-79
2022/02/17 08:13:36;;;;;;;7.00;2.30;;;10.00;1.00;;;;;;5017920;28;20446;-80
2022/02/17 08:16:03;;;;;;;6.40;2.47;;;10.00;1.00;;;;;;5018548;28;20560;-81
2022/02/17 08:18:29;;;;;;;6.30;2.00;;;10.20;99.90;;;;;;5011069;28;20770;-82
2022/02/17 08:20:56;;;;;;;6.77;2.10;;;9.90;1.00;;;;;;5007203;28;20455;-82
2022/02/17 08:23:23;;;;;;;7.07;2.27;;;10.00;1.00;;;;;;5004231;28;20426;-82
2022/02/17 08:25:54;;;;;;;4.60;2.30;;;9.90;1.00;;;;;;5004934;28;20795;-85
2022/02/17 08:28:21;;;;;;;6.97;2.13;;;10.10;68.00;;;;;;5004977;28;20470;-82
2022/02/17 08:30:49;;;;;;;5.93;2.17;;;9.90;1.00;;;;;;5002523;28;20485;-82
2022/02/17 08:33:16;;;;;;;4.43;1.93;;;10.00;1.00;;;;;;5005954;28;20474;-82
2022/02/17 08:35:42;;;;;;;6.57;2.00;;;10.00;1.00;;;;;;5005854;28;20446;-82
2022/02/17 08:38:09;;;;;;;4.53;1.73;;;10.10;1.00;;;;;;5005015;28;20481;-82
2022/02/17 08:40:37;;;;;;;6.43;1.40;;;10.10;1.00;;;;;;5007910;28;20476;-81
2022/02/17 08:43:09;;;;;;;3.67;1.93;;;10.10;1.00;;;;;;5005662;28;20461;-82
2022/02/17 08:45:36;;;;;;;6.90;2.47;;;10.20;1.00;;;;;;5005069;28;20397;-81
2022/02/17 08:48:05;;;;;;;3.93;2.13;;;10.20;1.00;;;;;;5007813;28;20491;-81
2022/02/17 08:50:33;;;;;;;2.47;1.33;;;10.90;99.90;;;;;;5007467;28;20483;-82
2022/02/17 08:53:00;;;;;;;9.10;2.27;;;10.20;1.00;;;;;;5010060;28;20436;-81
2022/02/17 08:55:27;;;;;;;3.37;1.50;;;10.10;1.00;;;;;;5011371;28;20445;-81
2022/02/17 08:57:54;;;;;;;3.27;1.90;;;10.10;1.00;;;;;;5012319;28;20451;-82
2022/02/17 09:00:21;;;;;;;4.17;1.70;;;10.30;99.90;;;;;;5012184;28;20515;-82
2022/02/17 09:02:48;;;;;;;7.03;2.33;;;10.20;1.00;;;;;;5011825;28;20452;-80
2022/02/17 09:05:16;;;;;;;5.10;1.73;;;10.10;1.00;;;;;;5007632;28;20428;-81
2022/02/17 09:07:42;;;;;;;4.03;1.80;;;10.10;1.00;;;;;;5005169;28;20448;-81
2022/02/17 09:10:09;;;;;;;3.10;1.93;;;10.20;1.00;;;;;;5007653;28;20471;-81
2022/02/17 09:12:37;;;;;;;5.03;1.37;;;10.10;1.00;;;;;;5009659;28;20432;-81
2022/02/17 09:15:05;;;;;;;5.20;2.40;;;10.20;1.00;;;;;;5006199;28;20479;-82
2022/02/17 09:17:32;;;;;;;5.37;1.87;;;10.20;1.00;;;;;;5013113;28;20455;-81
2022/02/17 09:19:59;;;;;;;5.60;2.00;;;10.20;1.00;;;;;;5010995;28;20462;-81
2022/02/17 09:22:27;;;;;;;6.90;1.80;;;10.20;1.00;;;;;;5011754;28;20455;-81
2022/02/17 09:24:53;;;;;;;3.57;1.57;;;10.20;1.00;;;;;;5008538;28;20450;-81
2022/02/17 09:27:20;;;;;;;6.80;1.77;;;10.10;1.00;;;;;;5005583;28;20431;-79
2022/02/17 09:29:46;;;;;;;3.43;2.10;;;10.10;1.00;;;;;;5002663;28;20493;-80
2022/02/17 09:32:13;;;;;;;5.23;1.90;;;10.10;1.00;;;;;;5004851;28;20454;-79
2022/02/17 09:34:41;;;;;;;11.10;1.97;;;10.10;1.00;;;;;;5013810;28;20440;-80
2022/02/17 09:37:08;;;;;;;4.20;1.73;;;10.00;1.00;;;;;;5013460;28;20461;-81
2022/02/17 09:39:36;;;;;;;10.37;2.60;;;10.10;1.00;;;;;;5014257;28;20468;-81
2022/02/17 09:42:06;;;;;;;7.30;2.57;;;10.10;1.00;;;;;;5013248;28;20455;-81
2022/02/17 09:44:34;;;;;;;6.27;2.30;;;10.10;1.00;;;;;;5010280;28;20443;-81
2022/02/17 09:47:01;;;;;;;2.17;1.53;;;10.10;1.00;;;;;;5009717;28;20512;-81
2022/02/17 09:49:30;;;;;;;7.53;1.63;;;10.10;1.00;;;;;;5017571;28;20488;-79
2022/02/17 09:51:57;;;;;;;2.70;1.37;;;10.00;1.00;;;;;;5020632;28;20453;-81
2022/02/17 09:54:24;;;;;;;8.10;2.33;;;10.10;1.00;;;;;;5023961;28;20433;-81
2022/02/17 09:56:52;;;;;;;4.43;1.93;;;10.10;1.00;;;;;;5019739;28;20451;-82
2022/02/17 09:59:20;;;;;;;4.00;1.60;;;9.90;12.50;;;;;;5013282;28;20435;-82
2022/02/17 10:01:55;;;;;;;2.97;1.70;;;9.80;39.00;;;;;;5012657;28;20426;-82
2022/02/17 10:04:23;;;;;;;6.57;1.80;;;9.70;49.60;;;;;;5009618;28;20499;-82
2022/02/17 10:06:51;;;;;;;7.97;2.13;;;9.60;86.20;;;;;;5011044;28;20419;-82
2022/02/17 10:09:22;;;;;;;3.30;1.50;;;10.20;99.90;;;;;;5011841;28;20464;-82
2022/02/17 10:11:51;;;;;;;2.60;1.70;;;9.60;99.90;;;;;;5012185;28;20441;-80
2022/02/17 10:14:20;;;;;;;3.43;1.40;;;9.40;99.90;;;;;;5010005;28;20506;-81
2022/02/17 10:16:55;;;;;;;4.27;1.40;;;9.50;99.90;;;;;;5011639;28;20539;-81
2022/02/17 10:19:23;;;;;;;3.93;2.07;;;9.50;99.90;;;;;;5011259;28;20473;-82
2022/02/17 10:21:50;;;;;;;5.40;1.67;;;9.50;99.90;;;;;;5010418;28;20459;-82
2022/02/17 10:24:35;;;;;;;2.77;1.07;;;9.50;99.90;;;;;;5013756;28;20431;-80
2022/02/17 10:27:04;;;;;;;3.27;1.70;;;9.40;99.90;;;;;;5010683;28;20423;-81
2022/02/17 10:29:34;;;;;;;4.70;1.50;;;9.40;1.00;;;;;;5010938;28;20557;-83
2022/02/17 10:32:12;;;;;;;6.93;2.27;;;9.40;99.90;;;;;;5011595;28;20486;-81
2022/02/17 10:34:41;;;;;;;8.10;2.63;;;9.40;99.90;;;;;;5011243;28;20453;-80
2022/02/17 10:37:09;;;;;;;4.20;1.57;;;9.50;99.90;;;;;;5009858;28;20432;-82
2022/02/17 10:39:42;;;;;;;7.07;1.70;;;9.50;99.90;;;;;;5010193;28;20473;-82
2022/02/17 10:42:10;;;;;;;3.63;1.90;;;9.50;99.90;;;;;;5010474;28;20487;-82
2022/02/17 10:44:39;;;;;;;3.17;1.60;;;9.60;1.00;;;;;;5008754;28;20871;-82
2022/02/17 10:47:17;;;;;;;2.20;2.00;;;9.60;99.90;;;;;;5007988;28;20540;-81
2022/02/17 10:49:46;;;;;;;3.53;1.40;;;9.60;99.90;;;;;;5009331;28;20511;-81
2022/02/17 10:52:13;;;;;;;8.13;3.87;;;9.60;99.90;;;;;;5010758;28;20440;-81
2022/02/17 10:54:40;;;;;;;5.17;1.63;;;9.70;99.90;;;;;;5011506;28;20431;-81
2022/02/17 10:57:07;;;;;;;3.00;1.50;;;9.80;99.90;;;;;;5009311;28;20445;-82
2022/02/17 11:02:24;;;;;;;4.47;1.50;;;9.70;99.90;;;;;;5011041;28;20415;-81
2022/02/17 11:04:51;;;;;;;7.60;1.57;;;9.80;99.90;;;;;;5008241;28;20427;-81
2022/02/17 11:07:19;;;;;;;5.93;2.27;;;9.90;99.90;;;;;;5008476;28;20435;-81
2022/02/17 11:09:46;;;;;;;5.40;1.83;;;10.10;99.90;;;;;;5006181;28;20498;-81
2022/02/17 11:12:14;;;;;;;3.23;1.80;;;10.00;99.90;;;;;;5009734;28;20425;-82
2022/02/17 11:14:44;;;;;;;4.60;2.17;;;9.90;99.90;;;;;;5006213;28;20431;-81
2022/02/17 11:17:12;;;;;;;2.70;1.80;;;10.00;99.90;;;;;;5006204;28;20508;-81
2022/02/17 11:19:40;;;;;;;7.70;2.10;;;10.20;99.90;;;;;;5007240;28;20497;-81
2022/02/17 11:22:07;;;;;;;3.60;1.80;;;10.10;99.90;;;;;;5006099;28;20442;-82
2022/02/17 11:24:47;;;;;;;6.97;1.77;;;10.00;99.90;;;;;;5004822;28;20423;-82
2022/02/17 11:27:14;;;;;;;2.97;1.93;;;9.90;99.90;;;;;;5004732;28;20424;-82
2022/02/17 11:29:43;;;;;;;3.70;1.80;;;9.80;99.90;;;;;;5002065;28;20495;-82
2022/02/17 11:32:14;;;;;;;7.50;2.07;;;9.60;99.90;;;;;;4999598;28;20503;-82
2022/02/17 11:34:43;;;;;;;2.50;1.40;;;9.30;22.60;;;;;;5003125;28;20459;-80
2022/02/17 11:37:32;;;;;;;5.53;1.43;;;9.00;99.90;;;;;;5001985;28;20431;-82
2022/02/17 11:40:00;;;;;;;8.87;2.03;;;8.80;1.00;;;;;;5009566;28;20439;-81
2022/02/17 11:42:29;;;;;;;4.90;1.30;;;8.80;1.00;;;;;;5003775;28;20422;-82
2022/02/17 11:45:11;;;;;;;7.20;2.00;;;8.80;1.00;;;;;;5001741;28;20415;-83
2022/02/17 11:48:00;;;;;;;9.10;1.70;;;8.80;99.90;;;;;;5003313;28;20472;-83
2022/02/17 11:50:36;;;;;;;6.13;1.40;;;8.90;99.90;;;;;;5004455;28;20484;-82
2022/02/17 11:53:32;;;;;;;2.30;1.23;;;9.10;1.00;;;;;;5005987;28;20435;-83
2022/02/17 11:56:33;;;;;;;2.60;2.40;;;9.10;99.90;;;;;;5004829;28;20437;-82
2022/02/17 11:59:00;;;;;;;4.53;1.80;;;9.10;99.90;;;;;;4965482;28;20474;-82
2022/02/17 12:01:43;;;;;;;3.30;1.83;;;9.00;99.90;;;;;;4963922;28;20450;-83
2022/02/17 12:04:17;;;;;;;4.67;1.50;;;9.00;99.90;;;;;;4987428;28;20453;-84
2022/02/17 12:06:46;;;;;;;2.60;1.33;;;9.00;99.90;;;;;;5006360;28;20890;-81
2022/02/17 12:09:44;;;;;;;6.00;1.70;;;9.10;1.00;;;;;;5005581;28;20454;-82
2022/02/17 12:12:37;;;;;;;1.93;1.50;;;9.00;99.90;;;;;;5005554;28;20418;-82
2022/02/17 12:15:06;;;;;;;1.73;1.07;;;9.00;1.00;;;;;;5005580;28;20432;-81
2022/02/17 12:17:36;;;;;;;1.57;1.00;;;9.00;1.00;;;;;;5008941;28;20411;-81
2022/02/17 12:20:11;;;;;;;1.43;1.33;;;9.10;99.90;;;;;;5014211;28;20890;-82
2022/02/17 12:22:42;;;;;;;3.43;1.53;;;9.10;1.00;;;;;;5006612;28;20905;-82
2022/02/17 12:25:21;;;;;;;4.20;1.10;;;9.40;37.60;;;;;;5005178;28;20412;-84
2022/02/17 12:27:50;;;;;;;2.40;1.10;;;9.20;1.00;;;;;;5005988;28;20436;-82
2022/02/17 12:30:31;;;;;;;2.20;1.10;;;9.10;62.30;;;;;;5007632;28;20600;-84
2022/02/17 12:33:08;;;;;;;5.30;2.07;;;9.10;1.00;;;;;;5006370;28;20411;-83
2022/02/17 12:35:36;;;;;;;2.03;1.33;;;8.90;1.00;;;;;;5007909;28;20412;-82
2022/02/17 12:38:06;;;;;;;1.37;1.10;;;8.90;99.90;;;;;;5009213;28;20411;-84
2022/02/17 12:40:33;;;;;;;5.80;1.57;;;8.90;99.40;;;;;;5007870;28;20440;-83
2022/02/17 12:43:01;;;;;;;1.53;1.17;;;10.40;99.90;;;;;;5008269;28;20456;-81
2022/02/17 12:45:35;;;;;;;5.90;1.50;;;8.80;99.90;;;;;;5008197;28;20431;-82
2022/02/17 12:48:04;;;;;;;1.67;0.80;;;8.80;1.00;;;;;;5007951;28;20446;-81
2022/02/17 12:50:32;;;;;;;4.23;1.10;;;8.60;99.90;;;;;;5009058;28;20492;-81
2022/02/17 12:52:58;;;;;;;3.93;1.20;;;8.70;1.00;;;;;;5006936;28;20440;-81
2022/02/17 12:55:46;;;;;;;1.30;1.20;;;8.90;1.00;;;;;;5011397;28;20419;-82
2022/02/17 12:58:14;;;;;;;2.10;1.03;;;8.80;1.00;;;;;;5013996;28;20455;-82
2022/02/17 13:00:43;;;;;;;1.23;1.13;;;8.80;99.90;;;;;;5012569;28;20439;-81
2022/02/17 13:03:10;;;;;;;2.23;1.37;;;8.80;26.10;;;;;;5013108;28;20440;-82
2022/02/17 13:08:38;;;;;;;4.30;1.50;;;8.90;99.90;;;;;;5011863;28;20479;-81
2022/02/17 13:11:05;;;;;;;2.47;1.07;;;8.90;1.00;;;;;;5012659;28;20484;-81
2022/02/17 13:13:32;;;;;;;4.77;1.50;;;8.90;99.90;;;;;;5011798;28;20419;-81
2022/02/17 13:15:59;;;;;;;2.07;1.40;;;8.80;1.00;;;;;;5011197;28;20452;-82
2022/02/17 13:18:26;;;;;;;3.03;1.30;;;8.90;1.00;;;;;;5011185;28;20419;-81
2022/02/17 13:21:08;;;;;;;2.53;1.00;;;8.70;1.00;;;;;;5010649;28;20510;-81
2022/02/17 13:23:34;;;;;;;1.93;1.40;;;8.80;99.90;;;;;;5012099;28;20412;-82
2022/02/17 13:26:01;;;;;;;1.00;0.90;;;8.80;99.90;;;;;;5010459;28;20471;-82
2022/02/17 13:28:28;;;;;;;1.50;1.20;;;9.00;99.90;;;;;;5010637;28;20454;-81
2022/02/17 13:30:54;;;;;;;1.40;1.03;;;8.80;1.00;;;;;;5011284;28;20469;-82
2022/02/17 13:33:27;;;;;;;3.38;1.30;;;8.60;99.90;;;;;;5011733;28;20456;-82
2022/02/17 13:35:59;;;;;;;2.20;1.40;;;8.30;1.00;;;;;;5011020;28;20201;-80
2022/02/17 13:38:28;;;;;;;1.55;1.10;;;8.20;1.00;;;;;;5013799;28;20416;-81
2022/02/17 13:40:55;;;;;;;1.73;1.10;;;7.50;1.00;;;;;;5012318;28;20205;-81
2022/02/17 13:43:22;;;;;;;1.10;1.00;;;7.10;98.80;;;;;;5012725;28;20247;-81
2022/02/17 13:46:00;;;;;;;4.75;1.30;;;6.90;99.90;;;;;;5012899;28;20212;-81
2022/02/17 13:48:30;;;;;;;4.63;1.27;;;6.40;99.90;;;;;;5012627;28;20213;-80
2022/02/17 13:51:07;;;;;;;4.30;1.75;;;6.80;99.90;;;;;;5007250;28;20267;-80
2022/02/17 13:53:36;;;;;;;4.78;1.52;;;6.80;99.90;;;;;;5006960;28;20707;-82
2022/02/17 13:56:04;;;;;;;1.42;1.30;;;6.60;99.90;;;;;;5004308;28;20209;-81
2022/02/17 13:58:33;;;;;;;1.85;1.25;;;6.40;99.90;;;;;;5005980;28;20820;-81
2022/02/17 14:01:00;;;;;;;2.47;1.70;;;6.40;99.90;;;;;;5007083;28;20203;-82
2022/02/17 14:03:28;;;;;;;3.00;1.52;;;6.40;99.90;;;;;;5007892;28;20205;-82
2022/02/17 14:05:56;;;;;;;5.28;1.88;;;6.30;99.90;;;;;;5009021;28;20232;-80
2022/02/17 14:08:26;;;;;;;3.15;1.50;;;6.40;99.90;;;;;;5014352;28;20259;-79
2022/02/17 14:10:53;;;;;;;4.07;1.25;;;6.40;99.90;;;;;;5015022;28;20212;-80
2022/02/17 14:13:20;;;;;;;3.40;1.50;;;6.40;99.90;;;;;;5016425;28;20315;-80
2022/02/17 14:15:47;;;;;;;4.45;1.60;;;6.40;99.90;;;;;;5016271;28;20205;-80
2022/02/17 14:18:15;;;;;;;2.28;1.30;;;6.40;99.90;;;;;;5015694;28;20189;-81
2022/02/17 14:20:41;;;;;;;5.57;2.85;;;6.50;99.90;;;;;;5017440;28;20213;-82
2022/02/17 14:23:08;;;;;;;5.15;1.38;;;6.70;99.90;;;;;;5020597;28;20220;-81
2022/02/17 14:25:36;;;;;;;10.95;2.33;;;6.80;99.90;;;;;;5019718;28;20197;-80
2022/02/17 14:28:03;;;;;;;2.00;1.80;;;6.90;99.90;;;;;;5016126;28;20248;-81
2022/02/17 14:30:30;;;;;;;2.08;1.58;;;7.00;99.90;;;;;;5008771;28;20618;-82
2022/02/17 14:32:57;;;;;;;5.43;2.65;;;7.00;97.60;;;;;;5006776;28;20205;-82
2022/02/17 14:35:24;;;;;;;4.43;1.70;;;7.10;99.90;;;;;;5008093;28;20205;-82
2022/02/17 14:37:52;;;;;;;5.38;3.22;;;7.20;99.90;;;;;;5008104;28;20209;-82
2022/02/17 14:40:20;;;;;;;1.73;1.40;;;7.20;9.70;;;;;;5008612;28;20228;-83
2022/02/17 14:42:50;;;;;;;7.50;1.70;;;7.20;1.00;;;;;;5012089;28;20205;-81
2022/02/17 14:45:18;;;;;;;5.85;1.60;;;7.20;1.00;;;;;;5013848;28;20193;-82
2022/02/17 14:47:47;;;;;;;2.55;1.23;;;7.30;1.00;;;;;;5010761;28;20264;-82
2022/02/17 14:50:14;;;;;;;6.10;1.45;;;7.60;1.00;;;;;;5011921;28;20225;-81
2022/02/17 14:52:41;;;;;;;3.58;1.95;;;7.40;1.00;;;;;;5011524;28;20237;-82
2022/02/17 14:55:09;;;;;;;6.80;1.60;;;7.40;1.00;;;;;;5009056;28;20201;-83
2022/02/17 14:57:36;;;;;;;2.00;1.30;;;7.50;1.00;;;;;;5007368;28;20204;-83